createdAt,value
2018-12-19T00:00:13.557Z,28.55
2018-12-19T00:00:44.655Z,27.67
2018-12-19T00:01:15.799Z,24.67
2018-12-19T00:01:46.916Z,27.73
2018-12-19T00:02:18.033Z,31.45
2018-12-19T00:02:49.132Z,27.10
2018-12-19T00:03:20.237Z,27.80
2018-12-19T00:03:51.391Z,27.90
2018-12-19T00:04:22.553Z,25.52
2018-12-19T00:04:53.784Z,26.15
2018-12-19T00:05:24.883Z,27.50
2018-12-19T00:05:55.987Z,27.15
2018-12-19T00:06:27.087Z,25.68
2018-12-19T00:06:58.188Z,29.07
2018-12-19T00:07:29.301Z,26.00
2018-12-19T00:08:00.412Z,27.27
2018-12-19T00:08:31.503Z,26.20
2018-12-19T00:09:03.308Z,30.08
2018-12-19T00:09:34.774Z,27.98
2018-12-19T00:10:05.891Z,24.80
2018-12-19T00:10:36.998Z,26.93
2018-12-19T00:11:08.105Z,24.92
2018-12-19T00:11:39.204Z,25.43
2018-12-19T00:12:10.305Z,26.85
2018-12-19T00:12:41.404Z,27.90
2018-12-19T00:13:12.509Z,27.95
2018-12-19T00:13:43.649Z,24.87
2018-12-19T00:14:14.744Z,28.05
2018-12-19T00:14:45.840Z,29.35
2018-12-19T00:15:16.947Z,26.27
2018-12-19T00:15:48.052Z,26.68
2018-12-19T00:16:19.202Z,25.00
2018-12-19T00:16:50.351Z,26.17
2018-12-19T00:17:21.488Z,27.75
2018-12-19T00:17:52.599Z,25.43
2018-12-19T00:18:23.708Z,23.15
2018-12-19T00:18:54.817Z,26.37
2018-12-19T00:19:25.921Z,23.98
2018-12-19T00:19:57.024Z,27.13
2018-12-19T00:20:28.135Z,27.75
2018-12-19T00:20:59.251Z,25.70
2018-12-19T00:21:30.365Z,27.42
2018-12-19T00:22:01.462Z,23.67
2018-12-19T00:22:32.607Z,24.72
2018-12-19T00:23:03.716Z,23.40
2018-12-19T00:23:34.840Z,21.80
2018-12-19T00:24:05.940Z,21.85
2018-12-19T00:24:37.057Z,21.35
2018-12-19T00:25:08.168Z,25.45
2018-12-19T00:25:39.279Z,25.08
2018-12-19T00:26:10.387Z,25.82
2018-12-19T00:26:41.492Z,24.12
2018-12-19T00:27:12.608Z,22.87
2018-12-19T00:27:44.437Z,26.85
2018-12-19T00:28:15.553Z,23.57
2018-12-19T00:28:46.657Z,24.20
2018-12-19T00:29:17.770Z,23.60
2018-12-19T00:29:48.876Z,26.25
2018-12-19T00:30:19.986Z,23.47
2018-12-19T00:30:51.108Z,24.30
2018-12-19T00:31:22.208Z,21.80
2018-12-19T00:31:53.323Z,22.70
2018-12-19T00:32:24.430Z,24.07
2018-12-19T00:32:55.574Z,24.02
2018-12-19T00:33:26.725Z,22.45
2018-12-19T00:33:57.824Z,22.35
2018-12-19T00:34:28.929Z,22.15
2018-12-19T00:35:00.043Z,21.62
2018-12-19T00:35:31.161Z,22.90
2018-12-19T00:36:02.283Z,21.12
2018-12-19T00:36:33.396Z,21.52
2018-12-19T00:37:04.520Z,21.68
2018-12-19T00:37:35.687Z,21.30
2018-12-19T00:38:06.811Z,23.05
2018-12-19T00:38:37.966Z,23.07
2018-12-19T00:39:09.663Z,22.73
2018-12-19T00:39:41.105Z,22.75
2018-12-19T00:40:12.208Z,23.90
2018-12-19T00:40:43.314Z,23.42
2018-12-19T00:41:14.422Z,20.65
2018-12-19T00:41:45.520Z,18.85
2018-12-19T00:42:16.629Z,19.95
2018-12-19T00:42:47.741Z,20.00
2018-12-19T00:43:18.854Z,22.00
2018-12-19T00:43:50.005Z,21.62
2018-12-19T00:44:22.453Z,20.30
2018-12-19T00:44:53.737Z,19.40
2018-12-19T00:45:24.862Z,18.60
2018-12-19T00:45:55.968Z,20.48
2018-12-19T00:46:27.063Z,20.65
2018-12-19T00:46:58.169Z,18.98
2018-12-19T00:47:29.404Z,18.95
2018-12-19T00:48:00.520Z,20.27
2018-12-19T00:48:31.656Z,19.50
2018-12-19T00:49:02.753Z,17.57
2018-12-19T00:49:33.879Z,17.35
2018-12-19T00:50:05.033Z,17.98
2018-12-19T00:50:36.137Z,19.32
2018-12-19T00:51:07.245Z,19.85
2018-12-19T00:51:38.356Z,20.60
2018-12-19T00:52:09.578Z,19.48
2018-12-19T00:52:40.704Z,16.97
2018-12-19T00:53:11.913Z,17.57
2018-12-19T00:53:43.021Z,17.75
2018-12-19T00:54:14.160Z,17.17
2018-12-19T00:54:45.274Z,18.50
2018-12-19T00:55:16.416Z,17.60
2018-12-19T00:55:47.541Z,19.35
2018-12-19T00:56:18.680Z,18.23
2018-12-19T00:56:49.783Z,19.20
2018-12-19T00:57:20.933Z,17.30
2018-12-19T00:57:52.041Z,18.82
2018-12-19T00:58:23.153Z,16.00
2018-12-19T00:58:54.271Z,18.98
2018-12-19T00:59:25.380Z,18.90
2018-12-19T00:59:56.489Z,17.90
2018-12-19T01:00:27.597Z,16.50
2018-12-19T01:00:58.737Z,17.82
2018-12-19T01:01:29.845Z,19.82
2018-12-19T01:02:00.960Z,18.20
2018-12-19T01:02:32.146Z,18.00
2018-12-19T01:03:03.248Z,15.88
2018-12-19T01:03:34.347Z,19.15
2018-12-19T01:04:05.451Z,18.10
2018-12-19T01:04:36.579Z,19.25
2018-12-19T01:05:07.703Z,19.05
2018-12-19T01:05:38.936Z,18.65
2018-12-19T01:06:10.046Z,20.32
2018-12-19T01:06:41.162Z,19.05
2018-12-19T01:07:12.265Z,16.05
2018-12-19T01:07:43.400Z,19.55
2018-12-19T01:08:14.506Z,21.12
2018-12-19T01:08:45.625Z,18.82
2018-12-19T01:09:16.769Z,18.37
2018-12-19T01:09:47.890Z,20.37
2018-12-19T01:10:18.992Z,20.17
2018-12-19T01:10:50.135Z,18.65
2018-12-19T01:11:21.248Z,16.23
2018-12-19T01:11:52.362Z,18.10
2018-12-19T01:12:23.467Z,20.40
2018-12-19T01:12:54.599Z,18.40
2018-12-19T01:13:25.716Z,17.65
2018-12-19T01:13:56.833Z,19.20
2018-12-19T01:14:27.985Z,18.45
2018-12-19T01:14:59.097Z,17.35
2018-12-19T01:15:30.212Z,17.75
2018-12-19T01:16:01.313Z,18.42
2018-12-19T01:16:32.432Z,18.00
2018-12-19T01:17:03.585Z,16.85
2018-12-19T01:17:34.693Z,19.48
2018-12-19T01:18:05.802Z,16.90
2018-12-19T01:18:36.953Z,17.60
2018-12-19T01:19:08.061Z,18.12
2018-12-19T01:19:39.213Z,20.05
2018-12-19T01:20:10.331Z,17.90
2018-12-19T01:20:41.449Z,17.20
2018-12-19T01:21:12.609Z,17.57
2018-12-19T01:21:43.750Z,17.62
2018-12-19T01:22:14.862Z,17.85
2018-12-19T01:22:45.968Z,17.77
2018-12-19T01:23:17.076Z,17.73
2018-12-19T01:23:48.202Z,17.23
2018-12-19T01:24:19.341Z,20.10
2018-12-19T01:24:50.443Z,17.30
2018-12-19T01:25:21.612Z,17.50
2018-12-19T01:25:52.776Z,18.55
2018-12-19T01:26:23.937Z,18.65
2018-12-19T01:26:55.117Z,16.52
2018-12-19T01:27:26.244Z,16.05
2018-12-19T01:27:57.352Z,17.48
2018-12-19T01:28:28.494Z,14.50
2018-12-19T01:28:59.608Z,16.87
2018-12-19T01:29:30.711Z,16.93
2018-12-19T01:30:01.861Z,15.15
2018-12-19T01:30:32.972Z,17.25
2018-12-19T01:31:04.099Z,17.42
2018-12-19T01:31:35.213Z,16.67
2018-12-19T01:32:06.326Z,16.48
2018-12-19T01:32:37.438Z,15.95
2018-12-19T01:33:08.537Z,17.52
2018-12-19T01:33:39.671Z,17.25
2018-12-19T01:34:10.812Z,15.93
2018-12-19T01:34:41.929Z,16.32
2018-12-19T01:35:13.071Z,15.85
2018-12-19T01:35:44.177Z,16.60
2018-12-19T01:36:15.296Z,15.72
2018-12-19T01:36:46.404Z,17.75
2018-12-19T01:37:17.549Z,17.17
2018-12-19T01:37:48.679Z,18.17
2018-12-19T01:38:19.792Z,17.32
2018-12-19T01:38:50.913Z,15.38
2018-12-19T01:39:22.571Z,17.00
2018-12-19T01:39:53.942Z,16.12
2018-12-19T01:40:25.052Z,17.23
2018-12-19T01:40:56.153Z,16.37
2018-12-19T01:41:27.267Z,17.20
2018-12-19T01:41:58.409Z,14.03
2018-12-19T01:42:29.519Z,16.82
2018-12-19T01:43:00.638Z,17.95
2018-12-19T01:43:31.735Z,14.93
2018-12-19T01:44:02.844Z,13.08
2018-12-19T01:44:33.962Z,15.43
2018-12-19T01:45:05.075Z,16.57
2018-12-19T01:45:36.175Z,16.60
2018-12-19T01:46:07.298Z,16.82
2018-12-19T01:46:38.415Z,15.93
2018-12-19T01:47:09.573Z,16.60
2018-12-19T01:47:40.692Z,15.05
2018-12-19T01:48:11.804Z,16.15
2018-12-19T01:48:42.926Z,15.68
2018-12-19T01:49:14.040Z,16.02
2018-12-19T01:49:45.154Z,16.55
2018-12-19T01:50:16.287Z,19.45
2018-12-19T01:50:47.409Z,17.30
2018-12-19T01:51:18.505Z,16.25
2018-12-19T01:51:49.612Z,16.45
2018-12-19T01:52:20.756Z,18.25
2018-12-19T01:52:51.857Z,16.82
2018-12-19T01:53:22.969Z,16.70
2018-12-19T01:53:54.072Z,16.02
2018-12-19T01:54:25.185Z,16.60
2018-12-19T01:54:56.292Z,15.95
2018-12-19T01:55:27.394Z,16.15
2018-12-19T01:55:58.497Z,17.32
2018-12-19T01:56:29.601Z,16.82
2018-12-19T01:57:00.703Z,17.70
2018-12-19T01:57:31.850Z,16.42
2018-12-19T01:58:02.965Z,17.02
2018-12-19T01:58:34.079Z,15.75
2018-12-19T01:59:05.195Z,16.73
2018-12-19T01:59:36.304Z,16.32
2018-12-19T02:00:07.401Z,17.17
2018-12-19T02:00:38.508Z,18.07
2018-12-19T02:01:09.625Z,18.75
2018-12-19T02:01:40.773Z,16.87
2018-12-19T02:02:11.887Z,17.80
2018-12-19T02:02:43.005Z,17.00
2018-12-19T02:03:14.149Z,18.73
2018-12-19T02:03:45.272Z,16.97
2018-12-19T02:04:16.395Z,16.57
2018-12-19T02:04:47.495Z,18.70
2018-12-19T02:05:18.621Z,16.48
2018-12-19T02:05:49.721Z,15.45
2018-12-19T02:06:20.826Z,19.45
2018-12-19T02:06:51.929Z,19.67
2018-12-19T02:07:23.040Z,18.30
2018-12-19T02:07:54.193Z,19.40
2018-12-19T02:08:25.302Z,17.20
2018-12-19T02:08:56.404Z,18.77
2018-12-19T02:09:29.087Z,19.15
2018-12-19T02:10:00.358Z,17.12
2018-12-19T02:10:31.468Z,17.45
2018-12-19T02:11:02.577Z,17.80
2018-12-19T02:11:33.697Z,18.40
2018-12-19T02:12:04.893Z,19.50
2018-12-19T02:12:36.006Z,18.07
2018-12-19T02:13:07.112Z,18.12
2018-12-19T02:13:38.225Z,19.32
2018-12-19T02:14:09.328Z,18.75
2018-12-19T02:14:40.482Z,18.57
2018-12-19T02:15:11.665Z,18.12
2018-12-19T02:15:42.773Z,19.02
2018-12-19T02:16:13.894Z,15.93
2018-12-19T02:16:45.056Z,18.15
2018-12-19T02:17:16.276Z,19.23
2018-12-19T02:17:47.401Z,18.17
2018-12-19T02:18:18.520Z,17.90
2018-12-19T02:18:49.625Z,17.60
2018-12-19T02:19:20.724Z,16.42
2018-12-19T02:19:51.835Z,15.68
2018-12-19T02:20:22.959Z,18.40
2018-12-19T02:20:54.098Z,16.77
2018-12-19T02:21:25.216Z,18.02
2018-12-19T02:21:56.360Z,17.10
2018-12-19T02:22:27.459Z,16.67
2018-12-19T02:22:58.558Z,18.42
2018-12-19T02:23:29.667Z,18.50
2018-12-19T02:24:00.803Z,19.70
2018-12-19T02:24:31.915Z,16.27
2018-12-19T02:25:03.036Z,16.00
2018-12-19T02:25:34.152Z,19.67
2018-12-19T02:26:05.273Z,19.85
2018-12-19T02:26:36.375Z,20.65
2018-12-19T02:27:07.495Z,17.77
2018-12-19T02:27:38.594Z,18.45
2018-12-19T02:28:09.737Z,16.48
2018-12-19T02:28:40.840Z,20.32
2018-12-19T02:29:12.071Z,17.52
2018-12-19T02:29:43.216Z,18.10
2018-12-19T02:30:14.329Z,17.98
2018-12-19T02:30:45.436Z,17.82
2018-12-19T02:31:16.539Z,20.27
2018-12-19T02:31:47.648Z,19.45
2018-12-19T02:32:18.761Z,18.98
2018-12-19T02:32:49.872Z,20.92
2018-12-19T02:33:20.991Z,18.73
2018-12-19T02:33:52.115Z,19.98
2018-12-19T02:34:23.209Z,18.45
2018-12-19T02:34:54.353Z,17.80
2018-12-19T02:35:25.458Z,20.25
2018-12-19T02:35:56.568Z,18.95
2018-12-19T02:36:27.690Z,20.52
2018-12-19T02:36:58.827Z,18.92
2018-12-19T02:37:29.934Z,19.05
2018-12-19T02:38:01.178Z,17.27
2018-12-19T02:38:32.280Z,18.73
2018-12-19T02:39:03.391Z,17.52
2018-12-19T02:39:36.333Z,16.50
2018-12-19T02:40:07.653Z,19.73
2018-12-19T02:40:39.719Z,20.90
2018-12-19T02:41:10.855Z,20.90
2018-12-19T02:41:41.971Z,20.10
2018-12-19T02:42:13.092Z,19.77
2018-12-19T02:42:44.221Z,18.50
2018-12-19T02:43:15.376Z,19.62
2018-12-19T02:43:46.481Z,20.40
2018-12-19T02:44:17.596Z,19.35
2018-12-19T02:44:48.717Z,20.70
2018-12-19T02:45:19.828Z,19.02
2018-12-19T02:45:50.980Z,17.92
2018-12-19T02:46:22.134Z,20.27
2018-12-19T02:46:53.237Z,18.82
2018-12-19T02:47:24.340Z,19.60
2018-12-19T02:47:55.446Z,20.43
2018-12-19T02:48:26.566Z,20.23
2018-12-19T02:48:57.667Z,21.93
2018-12-19T02:49:28.780Z,23.05
2018-12-19T02:49:59.890Z,21.07
2018-12-19T02:50:31.006Z,19.10
2018-12-19T02:51:02.102Z,17.73
2018-12-19T02:51:33.266Z,21.23
2018-12-19T02:52:04.375Z,23.85
2018-12-19T02:52:35.482Z,17.95
2018-12-19T02:53:06.621Z,20.10
2018-12-19T02:53:37.723Z,21.62
2018-12-19T02:54:08.842Z,22.07
2018-12-19T02:54:39.980Z,20.72
2018-12-19T02:55:11.092Z,20.77
2018-12-19T02:55:42.416Z,23.10
2018-12-19T02:56:13.532Z,21.07
2018-12-19T02:56:45.366Z,21.95
2018-12-19T02:57:16.478Z,17.87
2018-12-19T02:57:47.682Z,20.45
2018-12-19T02:58:18.798Z,19.27
2018-12-19T02:58:49.916Z,18.60
2018-12-19T02:59:21.144Z,19.92
2018-12-19T02:59:52.316Z,17.70
2018-12-19T03:00:23.457Z,20.27
2018-12-19T03:00:54.570Z,20.20
2018-12-19T03:01:25.695Z,19.87
2018-12-19T03:01:56.828Z,19.52
2018-12-19T03:02:27.952Z,18.20
2018-12-19T03:02:59.111Z,21.10
2018-12-19T03:03:30.325Z,19.82
2018-12-19T03:04:01.453Z,20.25
2018-12-19T03:04:33.343Z,18.87
2018-12-19T03:05:04.513Z,18.40
2018-12-19T03:05:35.667Z,18.75
2018-12-19T03:06:06.783Z,18.57
2018-12-19T03:06:37.886Z,19.20
2018-12-19T03:07:09.099Z,16.93
2018-12-19T03:07:40.229Z,18.00
2018-12-19T03:08:11.354Z,17.32
2018-12-19T03:08:42.470Z,17.75
2018-12-19T03:09:13.644Z,17.42
2018-12-19T03:09:44.819Z,16.97
2018-12-19T03:10:15.940Z,18.20
2018-12-19T03:10:47.079Z,17.05
2018-12-19T03:11:18.218Z,16.65
2018-12-19T03:11:49.344Z,18.92
2018-12-19T03:12:20.460Z,17.60
2018-12-19T03:12:51.563Z,17.77
2018-12-19T03:13:22.671Z,20.52
2018-12-19T03:13:53.833Z,17.62
2018-12-19T03:14:25.008Z,16.60
2018-12-19T03:14:56.171Z,16.77
2018-12-19T03:15:27.301Z,17.20
2018-12-19T03:15:58.425Z,18.37
2018-12-19T03:16:29.544Z,17.12
2018-12-19T03:17:00.695Z,19.37
2018-12-19T03:17:31.800Z,17.23
2018-12-19T03:18:03.794Z,19.45
2018-12-19T03:18:34.924Z,16.97
2018-12-19T03:19:06.075Z,15.68
2018-12-19T03:19:37.199Z,17.45
2018-12-19T03:20:08.361Z,17.55
2018-12-19T03:20:39.471Z,18.17
2018-12-19T03:21:10.637Z,15.05
2018-12-19T03:21:41.748Z,18.48
2018-12-19T03:22:12.865Z,18.90
2018-12-19T03:22:43.967Z,16.70
2018-12-19T03:23:15.065Z,19.23
2018-12-19T03:23:46.206Z,18.32
2018-12-19T03:24:17.341Z,16.87
2018-12-19T03:24:48.448Z,17.60
2018-12-19T03:25:20.098Z,18.25
2018-12-19T03:25:51.253Z,18.10
2018-12-19T03:26:22.444Z,17.40
2018-12-19T03:26:53.675Z,18.82
2018-12-19T03:27:24.818Z,18.35
2018-12-19T03:27:55.941Z,19.00
2018-12-19T03:28:27.117Z,19.50
2018-12-19T03:28:58.301Z,16.85
2018-12-19T03:29:29.480Z,18.65
2018-12-19T03:30:01.593Z,17.82
2018-12-19T03:30:32.772Z,18.05
2018-12-19T03:31:03.990Z,20.37
2018-12-19T03:31:35.221Z,17.87
2018-12-19T03:32:06.481Z,17.17
2018-12-19T03:32:37.672Z,17.45
2018-12-19T03:33:08.848Z,18.37
2018-12-19T03:33:40.010Z,17.85
2018-12-19T03:34:11.101Z,15.78
2018-12-19T03:34:42.259Z,15.68
2018-12-19T03:35:13.400Z,17.85
2018-12-19T03:35:44.609Z,16.25
2018-12-19T03:36:16.564Z,17.42
2018-12-19T03:36:48.713Z,16.65
2018-12-19T03:37:19.943Z,16.75
2018-12-19T03:37:51.101Z,17.05
2018-12-19T03:38:22.212Z,19.17
2018-12-19T03:38:53.497Z,20.52
2018-12-19T03:39:24.617Z,18.30
2018-12-19T03:39:55.734Z,18.82
2018-12-19T03:40:26.925Z,20.72
2018-12-19T03:40:58.045Z,19.48
2018-12-19T03:41:29.224Z,17.73
2018-12-19T03:42:00.337Z,15.40
2018-12-19T03:42:31.465Z,18.65
2018-12-19T03:43:02.625Z,17.62
2018-12-19T03:43:33.803Z,18.02
2018-12-19T03:44:04.960Z,18.80
2018-12-19T03:44:36.094Z,19.15
2018-12-19T03:45:07.214Z,17.70
2018-12-19T03:45:39.401Z,17.48
2018-12-19T03:46:10.531Z,17.37
2018-12-19T03:46:41.645Z,19.02
2018-12-19T03:47:12.810Z,19.17
2018-12-19T03:47:43.941Z,16.50
2018-12-19T03:48:15.046Z,19.30
2018-12-19T03:48:46.197Z,19.02
2018-12-19T03:49:17.305Z,17.82
2018-12-19T03:49:48.443Z,17.92
2018-12-19T03:50:19.562Z,17.57
2018-12-19T03:50:50.764Z,18.75
2018-12-19T03:51:21.963Z,17.25
2018-12-19T03:51:53.063Z,18.10
2018-12-19T03:52:24.234Z,19.90
2018-12-19T03:52:55.370Z,21.57
2018-12-19T03:53:26.489Z,19.60
2018-12-19T03:53:57.595Z,17.87
2018-12-19T03:54:28.813Z,19.65
2018-12-19T03:55:00.047Z,17.40
2018-12-19T03:55:31.165Z,18.02
2018-12-19T03:56:02.272Z,18.55
2018-12-19T03:56:34.225Z,17.82
2018-12-19T03:57:05.369Z,18.95
2018-12-19T03:57:36.523Z,19.77
2018-12-19T03:58:07.709Z,19.12
2018-12-19T03:58:38.859Z,17.70
2018-12-19T03:59:09.975Z,18.77
2018-12-19T03:59:41.295Z,17.27
2018-12-19T04:00:12.740Z,16.12
2018-12-19T04:00:43.857Z,18.42
2018-12-19T04:01:15.009Z,17.35
2018-12-19T04:01:46.123Z,19.77
2018-12-19T04:02:17.286Z,17.10
2018-12-19T04:02:48.417Z,15.72
2018-12-19T04:03:19.550Z,17.80
2018-12-19T04:03:50.702Z,19.75
2018-12-19T04:04:21.824Z,18.32
2018-12-19T04:04:52.980Z,16.85
2018-12-19T04:05:24.097Z,18.25
2018-12-19T04:05:55.237Z,15.95
2018-12-19T04:06:26.360Z,19.07
2018-12-19T04:06:57.483Z,17.55
2018-12-19T04:07:28.620Z,16.65
2018-12-19T04:07:59.735Z,19.32
2018-12-19T04:08:30.899Z,20.62
2018-12-19T04:09:02.052Z,17.40
2018-12-19T04:09:33.178Z,17.75
2018-12-19T04:10:04.321Z,17.77
2018-12-19T04:10:35.433Z,17.92
2018-12-19T04:11:06.546Z,15.40
2018-12-19T04:11:37.681Z,16.27
2018-12-19T04:12:08.828Z,15.90
2018-12-19T04:12:39.997Z,16.70
2018-12-19T04:13:11.100Z,16.87
2018-12-19T04:13:42.200Z,16.20
2018-12-19T04:14:13.392Z,17.70
2018-12-19T04:14:44.569Z,16.85
2018-12-19T04:15:15.760Z,17.02
2018-12-19T04:15:46.912Z,16.73
2018-12-19T04:16:18.053Z,17.25
2018-12-19T04:16:49.261Z,16.32
2018-12-19T04:17:20.458Z,17.48
2018-12-19T04:17:51.589Z,16.57
2018-12-19T04:18:22.766Z,17.20
2018-12-19T04:18:53.885Z,16.77
2018-12-19T04:19:25.025Z,15.58
2018-12-19T04:19:56.187Z,16.30
2018-12-19T04:20:27.312Z,18.17
2018-12-19T04:20:58.511Z,16.40
2018-12-19T04:21:29.616Z,16.97
2018-12-19T04:22:00.819Z,16.77
2018-12-19T04:22:33.195Z,16.97
2018-12-19T04:23:04.441Z,16.93
2018-12-19T04:23:35.599Z,19.70
2018-12-19T04:24:06.778Z,17.48
2018-12-19T04:24:37.942Z,17.40
2018-12-19T04:25:09.124Z,17.48
2018-12-19T04:25:40.268Z,16.05
2018-12-19T04:26:11.430Z,16.05
2018-12-19T04:26:42.615Z,17.10
2018-12-19T04:27:13.780Z,16.75
2018-12-19T04:27:44.948Z,20.92
2018-12-19T04:28:16.176Z,17.85
2018-12-19T04:28:47.377Z,14.40
2018-12-19T04:29:18.832Z,18.15
2018-12-19T04:29:50.020Z,16.70
2018-12-19T04:30:21.237Z,18.60
2018-12-19T04:30:52.624Z,18.70
2018-12-19T04:31:23.831Z,17.42
2018-12-19T04:31:55.702Z,18.00
2018-12-19T04:32:26.837Z,15.72
2018-12-19T04:32:58.835Z,16.90
2018-12-19T04:33:30.000Z,17.52
2018-12-19T04:34:01.189Z,17.45
2018-12-19T04:34:32.382Z,16.57
2018-12-19T04:35:03.554Z,18.65
2018-12-19T04:35:35.556Z,18.37
2018-12-19T04:36:06.687Z,19.40
2018-12-19T04:36:37.977Z,18.15
2018-12-19T04:37:09.092Z,15.85
2018-12-19T04:37:40.277Z,17.25
2018-12-19T04:38:12.152Z,17.75
2018-12-19T04:38:44.088Z,16.60
2018-12-19T04:39:15.244Z,18.70
2018-12-19T04:39:46.393Z,18.85
2018-12-19T04:40:17.538Z,18.75
2018-12-19T04:40:48.654Z,17.82
2018-12-19T04:41:19.765Z,18.50
2018-12-19T04:41:50.960Z,17.70
2018-12-19T04:42:22.075Z,17.82
2018-12-19T04:42:53.244Z,17.90
2018-12-19T04:43:24.751Z,17.82
2018-12-19T04:43:55.893Z,18.02
2018-12-19T04:44:27.038Z,16.95
2018-12-19T04:44:58.160Z,18.07
2018-12-19T04:45:29.315Z,19.15
2018-12-19T04:46:00.429Z,19.85
2018-12-19T04:46:31.551Z,16.42
2018-12-19T04:47:02.733Z,18.75
2018-12-19T04:47:33.865Z,17.37
2018-12-19T04:48:04.988Z,17.00
2018-12-19T04:48:36.118Z,18.92
2018-12-19T04:49:07.268Z,18.62
2018-12-19T04:49:38.393Z,16.55
2018-12-19T04:50:09.513Z,18.17
2018-12-19T04:50:40.631Z,21.93
2018-12-19T04:51:11.745Z,17.98
2018-12-19T04:51:42.907Z,18.07
2018-12-19T04:52:14.059Z,17.40
2018-12-19T04:52:45.184Z,17.02
2018-12-19T04:53:16.322Z,19.67
2018-12-19T04:53:47.462Z,19.77
2018-12-19T04:54:18.609Z,22.73
2018-12-19T04:54:49.724Z,20.12
2018-12-19T04:55:20.902Z,20.45
2018-12-19T04:55:52.017Z,19.65
2018-12-19T04:56:23.213Z,19.25
2018-12-19T04:56:54.369Z,20.48
2018-12-19T04:57:25.521Z,18.20
2018-12-19T04:57:56.677Z,22.02
2018-12-19T04:58:27.852Z,17.65
2018-12-19T04:58:59.005Z,19.45
2018-12-19T04:59:30.125Z,18.07
2018-12-19T05:00:01.311Z,19.92
2018-12-19T05:00:32.458Z,19.00
2018-12-19T05:01:03.838Z,17.15
2018-12-19T05:01:34.961Z,16.00
2018-12-19T05:02:06.092Z,18.05
2018-12-19T05:02:37.303Z,23.05
2018-12-19T05:03:08.436Z,23.57
2018-12-19T05:03:39.647Z,20.48
2018-12-19T05:04:10.818Z,19.90
2018-12-19T05:04:41.947Z,21.60
2018-12-19T05:05:13.061Z,19.77
2018-12-19T05:05:44.207Z,19.65
2018-12-19T05:06:15.361Z,21.20
2018-12-19T05:06:46.485Z,21.35
2018-12-19T05:07:17.646Z,20.20
2018-12-19T05:07:49.321Z,19.57
2018-12-19T05:08:20.476Z,20.30
2018-12-19T05:08:51.603Z,18.75
2018-12-19T05:09:22.742Z,20.25
2018-12-19T05:09:53.856Z,20.95
2018-12-19T05:10:24.998Z,23.07
2018-12-19T05:10:56.118Z,22.00
2018-12-19T05:11:27.233Z,19.42
2018-12-19T05:11:58.385Z,19.20
2018-12-19T05:12:29.556Z,19.95
2018-12-19T05:13:01.418Z,23.22
2018-12-19T05:13:32.698Z,19.30
2018-12-19T05:14:03.820Z,20.57
2018-12-19T05:14:34.979Z,23.10
2018-12-19T05:15:06.084Z,19.85
2018-12-19T05:15:37.229Z,21.07
2018-12-19T05:16:08.406Z,24.67
2018-12-19T05:16:39.598Z,21.93
2018-12-19T05:17:10.730Z,19.85
2018-12-19T05:17:41.840Z,22.93
2018-12-19T05:18:12.962Z,24.90
2018-12-19T05:18:44.081Z,20.02
2018-12-19T05:19:15.204Z,24.50
2018-12-19T05:19:46.358Z,24.18
2018-12-19T05:20:17.505Z,24.55
2018-12-19T05:20:48.648Z,18.75
2018-12-19T05:21:19.819Z,19.73
2018-12-19T05:21:50.981Z,20.75
2018-12-19T05:22:22.134Z,19.87
2018-12-19T05:22:53.261Z,21.55
2018-12-19T05:23:24.479Z,20.65
2018-12-19T05:23:55.608Z,20.27
2018-12-19T05:24:26.753Z,22.52
2018-12-19T05:24:57.924Z,21.87
2018-12-19T05:25:29.074Z,21.60
2018-12-19T05:26:00.229Z,23.12
2018-12-19T05:26:31.389Z,20.20
2018-12-19T05:27:02.510Z,20.88
2018-12-19T05:27:33.701Z,22.07
2018-12-19T05:28:04.872Z,24.10
2018-12-19T05:28:35.994Z,19.70
2018-12-19T05:29:07.229Z,22.93
2018-12-19T05:29:38.354Z,24.35
2018-12-19T05:30:09.470Z,22.93
2018-12-19T05:30:40.586Z,23.47
2018-12-19T05:31:11.703Z,28.42
2018-12-19T05:31:42.863Z,22.98
2018-12-19T05:32:14.014Z,18.62
2018-12-19T05:32:45.210Z,22.25
2018-12-19T05:33:16.446Z,22.45
2018-12-19T05:33:47.556Z,24.30
2018-12-19T05:34:18.676Z,22.52
2018-12-19T05:34:49.847Z,20.00
2018-12-19T05:35:21.003Z,24.37
2018-12-19T05:35:52.173Z,23.10
2018-12-19T05:36:23.315Z,24.82
2018-12-19T05:36:54.504Z,21.82
2018-12-19T05:37:25.624Z,24.85
2018-12-19T05:37:56.784Z,22.75
2018-12-19T05:38:27.929Z,23.77
2018-12-19T05:38:59.137Z,26.85
2018-12-19T05:39:30.326Z,26.80
2018-12-19T05:40:01.455Z,24.67
2018-12-19T05:40:32.638Z,26.62
2018-12-19T05:41:03.841Z,22.67
2018-12-19T05:41:34.956Z,25.72
2018-12-19T05:42:06.079Z,27.00
2018-12-19T05:42:37.232Z,27.10
2018-12-19T05:43:08.412Z,27.50
2018-12-19T05:43:39.570Z,28.77
2018-12-19T05:44:10.726Z,27.60
2018-12-19T05:44:41.887Z,27.35
2018-12-19T05:45:13.026Z,28.20
2018-12-19T05:45:44.140Z,30.00
2018-12-19T05:46:15.313Z,28.52
2018-12-19T05:46:46.469Z,26.30
2018-12-19T05:47:17.595Z,30.08
2018-12-19T05:47:48.724Z,27.82
2018-12-19T05:48:19.875Z,32.78
2018-12-19T05:48:51.008Z,35.80
2018-12-19T05:49:22.185Z,31.68
2018-12-19T05:49:53.377Z,30.60
2018-12-19T05:50:24.514Z,32.63
2018-12-19T05:50:55.671Z,33.88
2018-12-19T05:51:26.808Z,33.38
2018-12-19T05:51:58.073Z,35.23
2018-12-19T05:52:29.215Z,35.43
2018-12-19T05:53:00.352Z,38.73
2018-12-19T05:53:31.496Z,30.70
2018-12-19T05:54:02.620Z,34.53
2018-12-19T05:54:33.749Z,36.53
2018-12-19T05:55:04.892Z,35.80
2018-12-19T05:55:36.016Z,39.35
2018-12-19T05:56:08.229Z,35.05
2018-12-19T05:56:39.406Z,35.38
2018-12-19T05:57:10.570Z,36.77
2018-12-19T05:57:41.725Z,27.30
2018-12-19T05:58:12.900Z,31.30
2018-12-19T05:58:44.081Z,31.30
2018-12-19T05:59:16.197Z,32.88
2018-12-19T05:59:47.426Z,35.08
2018-12-19T06:00:18.576Z,33.90
2018-12-19T06:00:50.584Z,34.80
2018-12-19T06:01:21.807Z,37.42
2018-12-19T06:01:53.839Z,35.00
2018-12-19T06:02:25.071Z,29.00
2018-12-19T06:02:57.103Z,36.00
2018-12-19T06:03:28.493Z,36.15
2018-12-19T06:03:59.731Z,37.53
2018-12-19T06:04:32.023Z,33.53
2018-12-19T06:05:04.319Z,34.20
2018-12-19T06:05:35.625Z,33.48
2018-12-19T06:06:06.975Z,35.15
2018-12-19T06:06:38.275Z,32.85
2018-12-19T06:07:10.580Z,30.08
2018-12-19T06:07:41.909Z,29.67
2018-12-19T06:08:13.953Z,30.48
2018-12-19T06:08:46.266Z,31.60
2018-12-19T06:09:17.532Z,34.70
2018-12-19T06:09:48.862Z,34.80
2018-12-19T06:10:26.020Z,33.10
2018-12-19T06:10:53.446Z,30.95
2018-12-19T06:11:24.781Z,28.38
2018-12-19T06:11:56.502Z,31.55
2018-12-19T06:12:27.794Z,30.75
2018-12-19T06:12:59.020Z,27.37
2018-12-19T06:13:30.222Z,33.80
2018-12-19T06:14:01.527Z,32.45
2018-12-19T06:14:33.478Z,39.30
2018-12-19T06:15:04.895Z,30.37
2018-12-19T06:15:38.151Z,30.97
2018-12-19T06:16:10.681Z,47.50
2018-12-19T06:16:42.002Z,31.05
2018-12-19T06:17:13.775Z,54.70
2018-12-19T06:17:46.211Z,27.82
2018-12-19T06:18:17.482Z,35.28
2018-12-19T06:18:48.634Z,31.10
2018-12-19T06:19:20.661Z,30.88
2018-12-19T06:19:51.844Z,30.15
2018-12-19T06:20:22.983Z,31.10
2018-12-19T06:20:54.127Z,27.50
2018-12-19T06:21:25.261Z,25.20
2018-12-19T06:21:56.435Z,34.58
2018-12-19T06:22:27.552Z,34.35
2018-12-19T06:22:58.685Z,28.77
2018-12-19T06:23:29.795Z,32.80
2018-12-19T06:24:00.912Z,31.55
2018-12-19T06:24:32.059Z,33.33
2018-12-19T06:25:03.190Z,30.20
2018-12-19T06:25:34.303Z,34.70
2018-12-19T06:26:05.409Z,34.50
2018-12-19T06:26:36.536Z,35.78
2018-12-19T06:27:07.685Z,37.53
2018-12-19T06:27:38.816Z,35.92
2018-12-19T06:28:09.951Z,29.98
2018-12-19T06:28:41.075Z,34.20
2018-12-19T06:29:12.189Z,26.27
2018-12-19T06:29:43.393Z,30.85
2018-12-19T06:30:14.516Z,33.00
2018-12-19T06:30:45.620Z,34.40
2018-12-19T06:31:16.745Z,37.80
2018-12-19T06:31:47.852Z,37.58
2018-12-19T06:32:18.960Z,36.83
2018-12-19T06:32:50.120Z,35.78
2018-12-19T06:33:21.235Z,37.48
2018-12-19T06:33:52.356Z,37.03
2018-12-19T06:34:23.542Z,34.83
2018-12-19T06:34:54.714Z,32.90
2018-12-19T06:35:25.820Z,34.98
2018-12-19T06:35:56.948Z,39.05
2018-12-19T06:36:28.070Z,33.80
2018-12-19T06:36:59.211Z,37.40
2018-12-19T06:37:30.335Z,36.50
2018-12-19T06:38:01.464Z,37.65
2018-12-19T06:38:32.596Z,39.20
2018-12-19T06:39:03.701Z,33.75
2018-12-19T06:39:34.833Z,31.85
2018-12-19T06:40:05.963Z,31.50
2018-12-19T06:40:37.130Z,40.63
2018-12-19T06:41:08.252Z,34.48
2018-12-19T06:41:39.397Z,29.35